createdAt,value
2022-11-16T00:01:41.070Z,100959.25
2022-11-16T00:04:45.395Z,100953.72
2022-11-16T00:07:49.809Z,100975.88
2022-11-16T00:10:54.565Z,100949.97
2022-11-16T00:13:58.890Z,100926.91
2022-11-16T00:17:04.227Z,100952.34
2022-11-16T00:20:09.210Z,100952.09
2022-11-16T00:23:13.863Z,100967.81
2022-11-16T00:26:18.437Z,100975.78
2022-11-16T00:29:25.035Z,100958.28
2022-11-16T00:32:30.088Z,100958.72
2022-11-16T00:35:38.788Z,100973.34
2022-11-16T00:38:43.725Z,100973.59
2022-11-16T00:41:50.889Z,100962.41
2022-11-16T00:44:55.469Z,100953.53
2022-11-16T00:48:00.744Z,100977.34
2022-11-16T00:51:05.767Z,100982.63
2022-11-16T00:54:10.570Z,100932.66
2022-11-16T00:57:15.833Z,100983.84
2022-11-16T01:00:22.078Z,100972.97
2022-11-16T01:03:27.763Z,100977.06
2022-11-16T01:06:32.014Z,100981.72
2022-11-16T01:09:37.612Z,100987.91
2022-11-16T01:12:42.534Z,100991.38
2022-11-16T01:15:50.188Z,100991.16
2022-11-16T01:18:56.368Z,100978.94
2022-11-16T01:22:01.119Z,100976.06
2022-11-16T01:25:06.765Z,100976.00
2022-11-16T01:28:10.889Z,100972.94
2022-11-16T01:31:25.218Z,100970.03
2022-11-16T01:34:29.790Z,100962.00
2022-11-16T01:37:41.960Z,100958.78
2022-11-16T01:40:46.751Z,100964.88
2022-11-16T01:43:54.352Z,100979.53
2022-11-16T01:47:11.399Z,100961.41
2022-11-16T01:50:19.536Z,100951.78
2022-11-16T01:53:26.848Z,100974.06
2022-11-16T01:56:36.745Z,100953.31
2022-11-16T01:59:50.234Z,100980.50
2022-11-16T02:02:57.189Z,100978.78
2022-11-16T02:06:27.766Z,100974.09
2022-11-16T02:09:55.742Z,100980.13
2022-11-16T02:13:34.662Z,100975.72
2022-11-16T02:16:58.836Z,100972.66
2022-11-16T02:20:44.699Z,100971.75
2022-11-16T02:24:04.440Z,100967.63
2022-11-16T02:27:29.474Z,100963.25
2022-11-16T02:30:34.459Z,100956.31
2022-11-16T02:33:42.471Z,100910.88
2022-11-16T02:36:50.120Z,100967.13
2022-11-16T02:39:59.190Z,100970.75
2022-11-16T02:43:22.579Z,100961.31
2022-11-16T02:46:37.354Z,100957.56
2022-11-16T02:49:49.991Z,100959.41
2022-11-16T02:52:54.409Z,100956.22
2022-11-16T02:56:01.131Z,100965.97
2022-11-16T02:59:05.472Z,100927.25
2022-11-16T03:02:31.832Z,100952.00
2022-11-16T03:06:13.697Z,100943.22
2022-11-16T03:09:32.450Z,100956.69
2022-11-16T03:12:39.499Z,100966.59
2022-11-16T03:15:45.263Z,100918.31
2022-11-16T03:18:54.388Z,100936.38
2022-11-16T03:22:11.264Z,100942.47
2022-11-16T03:25:19.951Z,100942.22
2022-11-16T03:28:48.168Z,100935.25
2022-11-16T03:31:58.496Z,100933.28
2022-11-16T03:35:12.574Z,100937.41
2022-11-16T03:38:18.645Z,100933.94
2022-11-16T03:41:25.564Z,100942.41
2022-11-16T03:44:32.077Z,100948.53
2022-11-16T03:47:36.528Z,100946.81
2022-11-16T03:50:42.367Z,100937.91
2022-11-16T03:53:46.952Z,100940.66
2022-11-16T03:56:51.354Z,100933.16
2022-11-16T03:59:55.667Z,100937.25
2022-11-16T04:03:00.151Z,100949.34
2022-11-16T04:06:23.649Z,100944.56
2022-11-16T04:09:46.361Z,100940.97
2022-11-16T04:13:09.282Z,100931.38
2022-11-16T04:16:32.629Z,100937.00
2022-11-16T04:19:58.299Z,100937.13
2022-11-16T04:23:30.538Z,100923.81
2022-11-16T04:26:54.584Z,100938.34
2022-11-16T04:30:01.163Z,100939.94
2022-11-16T04:33:28.752Z,100931.06
2022-11-16T04:36:51.413Z,100924.78
2022-11-16T04:39:56.281Z,100932.19
2022-11-16T04:43:04.214Z,100891.66
2022-11-16T04:46:34.612Z,100941.03
2022-11-16T04:49:39.433Z,100946.97
2022-11-16T04:52:44.688Z,100936.25
2022-11-16T04:55:54.380Z,100917.97
2022-11-16T04:59:01.129Z,100938.97
2022-11-16T05:02:09.040Z,100925.41
2022-11-16T05:05:30.575Z,100937.41
2022-11-16T05:08:36.876Z,100934.28
2022-11-16T05:11:42.614Z,100939.81
2022-11-16T05:14:48.358Z,100953.09
2022-11-16T05:17:56.494Z,100953.69
2022-11-16T05:21:02.556Z,100959.78
2022-11-16T05:24:32.285Z,100939.13
2022-11-16T05:27:38.899Z,100947.41
2022-11-16T05:30:47.608Z,100947.81
2022-11-16T05:33:56.363Z,100912.94
2022-11-16T05:37:02.179Z,100958.91
2022-11-16T05:40:08.351Z,100956.94
2022-11-16T05:43:28.012Z,100948.00
2022-11-16T05:46:47.524Z,100958.56
2022-11-16T05:49:53.948Z,100941.78
2022-11-16T05:52:59.526Z,100966.78
2022-11-16T05:56:05.361Z,100962.88
2022-11-16T05:59:17.677Z,100973.91
2022-11-16T06:02:23.544Z,100958.78
2022-11-16T06:05:28.361Z,100969.59
2022-11-16T06:08:34.612Z,100956.81
2022-11-16T06:11:43.106Z,100961.69
2022-11-16T06:14:47.710Z,100960.66
2022-11-16T06:17:52.178Z,100962.41
2022-11-16T06:20:57.869Z,100974.19
2022-11-16T06:24:03.665Z,100961.00
2022-11-16T06:27:07.971Z,100960.16
2022-11-16T06:30:13.810Z,100976.84
2022-11-16T06:33:18.486Z,100980.03
2022-11-16T06:36:23.003Z,100981.78
2022-11-16T06:39:27.307Z,100990.38
2022-11-16T06:42:32.857Z,100975.56
2022-11-16T06:45:38.596Z,101000.50
2022-11-16T06:48:43.216Z,100997.75
2022-11-16T06:51:50.460Z,100977.63
2022-11-16T06:54:54.806Z,101018.19
2022-11-16T06:57:59.282Z,100999.19
2022-11-16T07:01:08.231Z,100968.88
2022-11-16T07:04:16.772Z,101019.69
2022-11-16T07:07:27.766Z,101004.63
2022-11-16T07:10:33.076Z,101026.44
2022-11-16T07:13:38.876Z,101017.22
2022-11-16T07:16:45.817Z,101031.03
2022-11-16T07:19:50.102Z,101009.66
2022-11-16T07:22:54.928Z,101022.19
2022-11-16T07:26:03.856Z,101027.84
2022-11-16T07:29:32.432Z,101021.47
2022-11-16T07:33:09.922Z,101035.78
2022-11-16T07:36:32.894Z,101042.69
2022-11-16T07:39:37.538Z,101055.09
2022-11-16T07:42:46.978Z,101017.13
2022-11-16T07:49:39.503Z,101061.84
2022-11-16T07:52:50.994Z,101043.22
2022-11-16T07:55:59.744Z,101058.88
2022-11-16T07:59:07.355Z,101057.84
2022-11-16T08:02:17.003Z,101054.59
2022-11-16T08:05:21.761Z,101052.84
2022-11-16T08:08:28.800Z,101069.16
2022-11-16T08:11:33.674Z,101081.00
2022-11-16T08:14:38.255Z,101091.75
2022-11-16T08:17:43.041Z,101069.44
2022-11-16T08:20:49.876Z,101084.16
2022-11-16T08:23:58.309Z,101090.19
2022-11-16T08:27:03.811Z,101094.25
2022-11-16T08:30:10.663Z,101059.91
2022-11-16T08:33:16.401Z,101095.75
2022-11-16T08:36:21.812Z,101107.94
2022-11-16T08:39:26.953Z,101114.03
2022-11-16T08:42:31.772Z,101107.28
2022-11-16T08:45:36.736Z,101125.66
2022-11-16T08:48:41.903Z,101110.50
2022-11-16T08:51:47.170Z,101114.06
2022-11-16T08:54:51.850Z,101119.88
2022-11-16T08:57:57.030Z,101119.69
2022-11-16T09:01:07.490Z,101109.78
2022-11-16T09:04:12.124Z,101113.56
2022-11-16T09:07:16.546Z,101134.53
2022-11-16T09:10:23.961Z,101132.59
2022-11-16T09:13:29.444Z,101136.78
2022-11-16T09:16:33.764Z,101147.53
2022-11-16T09:19:41.728Z,101140.94
2022-11-16T09:22:46.717Z,101130.50
2022-11-16T09:25:51.734Z,101119.59
2022-11-16T09:28:59.076Z,101118.78
2022-11-16T09:32:03.976Z,101132.38
2022-11-16T09:35:08.993Z,101143.09
2022-11-16T09:38:20.677Z,101128.22
2022-11-16T09:41:52.854Z,101145.63
2022-11-16T09:45:01.334Z,101143.91
2022-11-16T09:48:13.255Z,101141.44
2022-11-16T09:51:19.829Z,101160.16
2022-11-16T09:54:40.405Z,101167.03
2022-11-16T09:57:46.495Z,101159.00
2022-11-16T10:00:58.292Z,101162.63
2022-11-16T10:04:21.157Z,101172.31
2022-11-16T10:08:19.126Z,101172.09
2022-11-16T10:11:39.057Z,101167.47
2022-11-16T10:15:29.284Z,101169.88
2022-11-16T10:18:47.627Z,101180.47
2022-11-16T10:21:57.239Z,101182.88
2022-11-16T10:25:09.923Z,101192.19
2022-11-16T10:28:51.330Z,101193.66
2022-11-16T10:32:06.777Z,101192.44
2022-11-16T10:35:19.590Z,101186.16
2022-11-16T10:38:32.054Z,101209.06
2022-11-16T10:41:46.152Z,101217.09
2022-11-16T10:45:05.266Z,101207.81
2022-11-16T10:48:16.561Z,101208.91
2022-11-16T10:51:21.481Z,101225.56
2022-11-16T10:54:26.005Z,101216.56
2022-11-16T10:58:03.292Z,101225.31
2022-11-16T11:01:12.449Z,101230.19
2022-11-16T11:04:24.446Z,101176.22
2022-11-16T11:07:35.172Z,101225.69
2022-11-16T11:10:44.931Z,101228.50
2022-11-16T11:14:05.140Z,101221.50
2022-11-16T11:17:15.556Z,101217.13
2022-11-16T11:20:25.822Z,101237.91
2022-11-16T11:23:30.623Z,101232.81
2022-11-16T11:26:42.299Z,101220.59
2022-11-16T11:29:54.949Z,101243.22
2022-11-16T11:33:00.495Z,101231.00
2022-11-16T11:36:10.976Z,101231.13
2022-11-16T11:39:15.572Z,101247.03
2022-11-16T11:42:24.041Z,101243.19
2022-11-16T11:45:43.704Z,101249.84
2022-11-16T11:49:12.274Z,101253.03
2022-11-16T11:52:23.821Z,101257.06
2022-11-16T11:55:28.733Z,101260.16
2022-11-16T11:58:40.165Z,101266.81
2022-11-16T12:02:17.052Z,101269.28
2022-11-16T12:05:50.149Z,101240.47
2022-11-16T12:09:32.188Z,101274.25
2022-11-16T12:13:21.332Z,101270.75
2022-11-16T12:16:35.409Z,101280.59
2022-11-16T12:20:08.771Z,101260.66
2022-11-16T12:23:25.631Z,101274.22
2022-11-16T12:27:10.942Z,101276.22
2022-11-16T12:30:31.955Z,101294.25
2022-11-16T12:33:48.302Z,101278.69
2022-11-16T12:36:55.686Z,101291.78
2022-11-16T12:40:27.829Z,101277.94
2022-11-16T12:43:53.482Z,101289.00
2022-11-16T12:47:27.163Z,101285.91
2022-11-16T12:51:26.410Z,101282.19
2022-11-16T12:55:26.349Z,101285.63
2022-11-16T12:58:53.542Z,101281.31
2022-11-16T13:02:06.821Z,101288.19
2022-11-16T13:05:32.634Z,101297.81
2022-11-16T13:08:55.060Z,101288.16
2022-11-16T13:12:06.491Z,101293.72
2022-11-16T13:15:20.162Z,101283.44
2022-11-16T13:18:26.565Z,101279.28
2022-11-16T13:21:48.035Z,101306.84
2022-11-16T13:25:44.675Z,101300.69
2022-11-16T13:28:52.103Z,101304.13
2022-11-16T13:32:37.215Z,101302.13
2022-11-16T13:35:41.731Z,101310.41
2022-11-16T13:39:06.593Z,101306.09
2022-11-16T13:42:15.176Z,101296.16
2022-11-16T13:45:23.053Z,101299.75
2022-11-16T13:48:38.650Z,101282.97
2022-11-16T13:51:53.117Z,101308.81
2022-11-16T13:55:02.545Z,101304.56
2022-11-16T13:58:10.326Z,101307.56
2022-11-16T14:01:16.246Z,101312.00
2022-11-16T14:04:34.937Z,101318.06
2022-11-16T14:07:50.609Z,101323.66
2022-11-16T14:10:58.881Z,101324.06
2022-11-16T14:14:11.580Z,101326.13
2022-11-16T14:17:50.702Z,101329.47
2022-11-16T14:21:03.518Z,101322.00
2022-11-16T14:24:20.106Z,101336.25
2022-11-16T14:27:41.368Z,101341.41
2022-11-16T14:31:16.623Z,101338.69
2022-11-16T14:34:25.826Z,101320.56
2022-11-16T14:37:41.698Z,101339.66
2022-11-16T14:40:58.887Z,101349.34
2022-11-16T14:44:04.644Z,101352.75
2022-11-16T14:47:27.208Z,101350.59
2022-11-16T14:50:36.700Z,101356.38
2022-11-16T14:53:55.025Z,101366.34
2022-11-16T14:57:05.959Z,101370.19
2022-11-16T15:00:20.443Z,101373.69
2022-11-16T15:03:29.334Z,101370.59
2022-11-16T15:06:44.757Z,101378.78
2022-11-16T15:09:53.242Z,101379.84
2022-11-16T15:12:58.948Z,101376.28
2022-11-16T15:16:31.485Z,101378.41
2022-11-16T15:19:36.271Z,101347.94
2022-11-16T15:22:46.661Z,101385.31
2022-11-16T15:26:00.241Z,101380.91
2022-11-16T15:29:04.988Z,101374.13
2022-11-16T15:32:17.670Z,101378.06
2022-11-16T15:35:34.427Z,101377.06
2022-11-16T15:38:39.482Z,101365.94
2022-11-16T15:41:44.882Z,101371.91
2022-11-16T15:44:49.277Z,101359.25
2022-11-16T15:47:54.919Z,101369.19
2022-11-16T15:51:17.355Z,101377.97
2022-11-16T15:54:24.576Z,101373.53
2022-11-16T15:57:29.052Z,101336.59
2022-11-16T16:00:37.250Z,101374.63
2022-11-16T16:04:01.372Z,101367.31
2022-11-16T16:07:06.124Z,101365.69
2022-11-16T16:10:20.887Z,101378.00
2022-11-16T16:13:30.237Z,101375.88
2022-11-16T16:16:41.402Z,101370.94
2022-11-16T16:20:06.937Z,101376.53
2022-11-16T16:23:18.893Z,101388.50
2022-11-16T16:26:24.446Z,101389.00
2022-11-16T16:29:29.575Z,101394.63
2022-11-16T16:32:36.153Z,101401.50
2022-11-16T16:35:41.612Z,101386.03
2022-11-16T16:38:46.123Z,101397.88
2022-11-16T16:41:50.326Z,101384.72
2022-11-16T16:44:54.917Z,101408.06
2022-11-16T16:47:59.120Z,101386.81
2022-11-16T16:51:04.879Z,101405.69
2022-11-16T16:54:10.945Z,101405.34
2022-11-16T16:57:19.101Z,101420.72
2022-11-16T17:00:23.542Z,101415.31
2022-11-16T17:03:27.782Z,101427.88
2022-11-16T17:06:32.216Z,101428.47
2022-11-16T17:09:36.595Z,101425.53
2022-11-16T17:12:41.329Z,101430.91
2022-11-16T17:15:45.834Z,101426.88
2022-11-16T17:18:54.749Z,101433.56
2022-11-16T17:21:59.269Z,101425.22
2022-11-16T17:25:03.674Z,101422.03
2022-11-16T17:28:08.217Z,101398.75
2022-11-16T17:31:14.215Z,101438.88
2022-11-16T17:34:18.439Z,101439.81
2022-11-16T17:37:24.719Z,101439.13
2022-11-16T17:40:28.807Z,101432.91
2022-11-16T17:43:33.738Z,101435.41
2022-11-16T17:46:38.004Z,101434.03
2022-11-16T17:49:42.385Z,101442.44
2022-11-16T17:52:47.413Z,101432.25
2022-11-16T17:55:52.614Z,101436.28
2022-11-16T17:58:59.236Z,101441.56
2022-11-16T18:02:04.830Z,101413.00
2022-11-16T18:05:10.768Z,101450.13
2022-11-16T18:08:15.231Z,101443.78
2022-11-16T18:11:22.230Z,101462.19
2022-11-16T18:14:27.822Z,101458.56
2022-11-16T18:17:32.734Z,101454.28
2022-11-16T18:20:38.856Z,101453.25
2022-11-16T18:23:44.149Z,101457.19
2022-11-16T18:26:49.689Z,101452.75
2022-11-16T18:29:54.052Z,101444.44
2022-11-16T18:32:58.245Z,101438.91
2022-11-16T18:36:03.817Z,101443.13
2022-11-16T18:39:08.088Z,101454.50
2022-11-16T18:42:13.797Z,101430.72
2022-11-16T18:45:18.509Z,101464.06
2022-11-16T18:48:23.060Z,101469.38
2022-11-16T18:51:29.201Z,101477.59
2022-11-16T18:54:34.421Z,101473.09
2022-11-16T18:57:38.814Z,101471.03
2022-11-16T19:00:43.289Z,101467.19
2022-11-16T19:03:48.194Z,101477.19
2022-11-16T19:06:52.777Z,101481.03
2022-11-16T19:09:56.954Z,101468.97
2022-11-16T19:13:01.078Z,101489.41
2022-11-16T19:16:07.854Z,101485.94
2022-11-16T19:19:12.202Z,101489.53
2022-11-16T19:22:16.602Z,101495.66
2022-11-16T19:25:21.110Z,101486.53
2022-11-16T19:28:25.681Z,101489.88
2022-11-16T19:31:33.220Z,101494.56
2022-11-16T19:34:37.677Z,101484.34
2022-11-16T19:37:41.986Z,101485.38
2022-11-16T19:40:46.282Z,101493.63
2022-11-16T19:43:53.536Z,101488.22
2022-11-16T19:46:58.135Z,101484.16
2022-11-16T19:50:02.681Z,101491.31
2022-11-16T19:53:06.981Z,101516.13
2022-11-16T19:56:13.306Z,101505.81
2022-11-16T19:59:18.540Z,101519.56
2022-11-16T20:02:22.635Z,101509.13
2022-11-16T20:05:27.258Z,101490.69
2022-11-16T20:08:31.614Z,101485.63
2022-11-16T20:11:38.034Z,101501.47
2022-11-16T20:14:42.461Z,101504.03
2022-11-16T20:17:46.880Z,101510.34
2022-11-16T20:20:51.296Z,101509.13
2022-11-16T20:24:05.820Z,101503.38
2022-11-16T20:27:10.863Z,101525.44
2022-11-16T20:30:15.363Z,101526.66
2022-11-16T20:33:20.099Z,101515.34
2022-11-16T20:36:26.779Z,101527.66
2022-11-16T20:39:31.233Z,101518.78
2022-11-16T20:42:35.503Z,101502.63
2022-11-16T20:45:40.049Z,101530.63
2022-11-16T20:48:45.389Z,101534.06
2022-11-16T20:51:51.453Z,101522.75
2022-11-16T20:54:56.178Z,101515.28
2022-11-16T20:58:00.473Z,101526.28
2022-11-16T21:01:07.592Z,101527.25
2022-11-16T21:04:12.008Z,101515.22
2022-11-16T21:07:16.717Z,101472.66
2022-11-16T21:10:21.071Z,101511.81
2022-11-16T21:13:44.039Z,101534.22
2022-11-16T21:16:48.305Z,101541.00
2022-11-16T21:20:20.217Z,101533.69
2022-11-16T21:23:17.004Z,101506.06
2022-11-16T21:26:24.072Z,101551.19
2022-11-16T21:29:28.962Z,101547.38
2022-11-16T21:32:33.382Z,101557.75
2022-11-16T21:35:37.674Z,101550.06
2022-11-16T21:38:42.321Z,101548.63
2022-11-16T21:41:46.636Z,101548.06
2022-11-16T21:44:50.984Z,101554.44
2022-11-16T21:47:55.369Z,101558.22
2022-11-16T21:51:17.352Z,101562.34
2022-11-16T21:54:21.511Z,101560.22
2022-11-16T21:57:25.829Z,101561.31
2022-11-16T22:00:30.621Z,101562.25
2022-11-16T22:03:35.515Z,101562.06
2022-11-16T22:06:58.619Z,101566.06
2022-11-16T22:10:13.055Z,101575.34
2022-11-16T22:13:17.324Z,101577.00
2022-11-16T22:16:23.921Z,101573.91
2022-11-16T22:19:28.324Z,101580.06
2022-11-16T22:22:32.745Z,101585.19
2022-11-16T22:25:38.062Z,101582.06
2022-11-16T22:28:43.097Z,101599.50
2022-11-16T22:31:48.089Z,101539.28
2022-11-16T22:34:52.876Z,101600.19
2022-11-16T22:37:57.674Z,101617.63
2022-11-16T22:41:02.069Z,101615.09
2022-11-16T22:44:06.851Z,101612.97
2022-11-16T22:47:11.327Z,101610.72
2022-11-16T22:50:15.882Z,101595.47
2022-11-16T22:53:20.159Z,101618.66
2022-11-16T22:56:25.192Z,101626.91
2022-11-16T22:59:29.717Z,101636.31
2022-11-16T23:02:33.950Z,101642.91
2022-11-16T23:05:38.487Z,101629.25
2022-11-16T23:08:42.961Z,101643.69
2022-11-16T23:12:05.761Z,101659.66
2022-11-16T23:15:32.336Z,101666.03
2022-11-16T23:18:36.913Z,101659.00
2022-11-16T23:21:59.971Z,101662.81
2022-11-16T23:25:24.264Z,101676.00
2022-11-16T23:28:28.663Z,101664.38
2022-11-16T23:31:33.118Z,101675.88
2022-11-16T23:34:37.760Z,101670.91
2022-11-16T23:37:55.655Z,101684.56
2022-11-16T23:41:20.232Z,101690.69
2022-11-16T23:44:24.466Z,101646.16
2022-11-16T23:47:29.198Z,101675.56
2022-11-16T23:50:33.490Z,101676.78
2022-11-16T23:53:38.200Z,101674.69
2022-11-16T23:56:42.904Z,101669.00
2022-11-16T23:59:47.367Z,101674.28
